Time;durP1;ratioP1;P1;durP2;ratioP2;P2;SDS_P1;SDS_P2;PMS_P1;PMS_P2;Temp;Humidity;BMP_temperature;BMP_pressure;BME280_temperature;BME280_humidity;BME280_pressure;Samples;Min_cycle;Max_cycle;Signal;HPM_P1;HPM_P2
2020/12/25 00:02:31;;;;;;;2.50;2.30;;;2.20;99.90;;;;;;4930668;29;20294;-88
2020/12/25 00:05:09;;;;;;;3.07;2.50;;;2.20;99.90;;;;;;4932471;28;20452;-88
2020/12/25 00:07:40;;;;;;;2.77;2.20;;;2.20;99.90;;;;;;4930744;28;20448;-88
2020/12/25 00:10:17;;;;;;;3.07;2.20;;;2.30;99.90;;;;;;4936867;28;20492;-89
2020/12/25 00:12:49;;;;;;;2.33;2.00;;;2.30;99.90;;;;;;4933994;29;20454;-87
2020/12/25 00:15:18;;;;;;;2.93;2.30;;;2.30;99.90;;;;;;4932176;28;20447;-88
2020/12/25 00:17:43;;;;;;;3.80;2.70;;;2.30;99.90;;;;;;4942697;28;21081;-89
2020/12/25 00:20:09;;;;;;;3.30;2.80;;;2.30;99.90;;;;;;4925889;28;20489;-88
2020/12/25 00:22:34;;;;;;;3.30;2.77;;;2.30;99.90;;;;;;4940222;28;20227;-86
2020/12/25 00:25:00;;;;;;;3.33;3.03;;;2.40;99.90;;;;;;4942695;28;20226;-88
2020/12/25 00:27:26;;;;;;;3.73;2.93;;;2.40;99.90;;;;;;4925984;29;20206;-87
2020/12/25 00:29:51;;;;;;;3.30;2.53;;;2.40;99.90;;;;;;4925923;28;20209;-89
2020/12/25 00:32:20;;;;;;;3.40;2.90;;;2.40;99.90;;;;;;4927094;28;20230;-88
2020/12/25 00:34:45;;;;;;;4.60;3.47;;;2.40;99.90;;;;;;4925590;29;20197;-88
2020/12/25 00:37:11;;;;;;;3.00;2.67;;;2.40;99.90;;;;;;4933551;28;20450;-89
2020/12/25 00:39:39;;;;;;;3.07;2.70;;;2.40;99.90;;;;;;4951970;28;20219;-89
2020/12/25 00:42:05;;;;;;;3.20;2.63;;;2.40;99.90;;;;;;4971019;28;20205;-88
2020/12/25 00:44:30;;;;;;;3.37;2.97;;;2.30;99.90;;;;;;4965365;28;20426;-88
2020/12/25 00:46:56;;;;;;;3.20;2.90;;;2.40;99.90;;;;;;4965411;28;20212;-90
2020/12/25 00:49:22;;;;;;;3.13;2.67;;;2.30;99.90;;;;;;4966860;28;20245;-89
2020/12/25 00:51:48;;;;;;;5.30;2.93;;;2.30;99.90;;;;;;4966783;28;20179;-88
2020/12/25 00:54:16;;;;;;;4.53;3.20;;;2.40;99.90;;;;;;4948758;28;20247;-87
2020/12/25 00:56:42;;;;;;;3.80;2.40;;;2.40;99.90;;;;;;4948328;29;20903;-86
2020/12/25 00:59:07;;;;;;;3.03;2.70;;;2.40;99.90;;;;;;4926424;28;20545;-87
2020/12/25 01:01:37;;;;;;;3.90;3.50;;;2.40;99.90;;;;;;4897455;28;20362;-85
2020/12/25 01:04:03;;;;;;;3.80;3.03;;;2.40;99.90;;;;;;4952624;28;20179;-87
2020/12/25 01:06:29;;;;;;;2.10;1.90;;;2.40;99.90;;;;;;4955274;28;20418;-88
2020/12/25 01:08:54;;;;;;;3.43;3.10;;;2.40;99.90;;;;;;4949316;28;20450;-87
2020/12/25 01:11:24;;;;;;;4.03;3.13;;;2.50;99.90;;;;;;4970402;28;20205;-88
2020/12/25 01:13:50;;;;;;;3.73;3.07;;;2.50;99.90;;;;;;4940014;28;20241;-86
2020/12/25 01:16:15;;;;;;;4.10;3.10;;;2.50;99.90;;;;;;4950344;28;20472;-87
2020/12/25 01:18:50;;;;;;;4.23;3.17;;;2.50;99.90;;;;;;4968352;28;20223;-85
2020/12/25 01:21:20;;;;;;;4.37;3.23;;;2.60;99.90;;;;;;4961760;28;20211;-87
2020/12/25 01:23:45;;;;;;;5.03;2.90;;;2.60;99.90;;;;;;4949959;28;20480;-87
2020/12/25 01:26:14;;;;;;;5.10;3.13;;;2.60;99.90;;;;;;4964644;28;20437;-86
2020/12/25 01:28:40;;;;;;;4.50;3.57;;;2.60;99.90;;;;;;4947419;29;20191;-87
2020/12/25 01:31:05;;;;;;;5.23;3.67;;;2.60;99.90;;;;;;4938528;28;20549;-87
2020/12/25 01:33:33;;;;;;;4.33;3.37;;;2.70;99.90;;;;;;4951593;28;20257;-87
2020/12/25 01:35:59;;;;;;;4.20;3.40;;;2.70;99.90;;;;;;4935047;29;20211;-87
2020/12/25 01:38:25;;;;;;;4.20;3.10;;;2.80;99.90;;;;;;4934413;28;20443;-88
2020/12/25 01:40:51;;;;;;;6.90;3.60;;;2.80;99.90;;;;;;4934115;28;20454;-85
2020/12/25 01:43:16;;;;;;;3.50;2.87;;;2.80;99.90;;;;;;4928632;29;20270;-86
2020/12/25 01:45:42;;;;;;;3.40;3.10;;;2.80;99.90;;;;;;4931622;28;20472;-85
2020/12/25 01:48:08;;;;;;;4.17;3.20;;;2.90;99.90;;;;;;4948183;28;20289;-86
2020/12/25 01:50:35;;;;;;;6.37;4.00;;;2.90;99.90;;;;;;4931582;29;20259;-86
2020/12/25 01:53:03;;;;;;;5.93;3.83;;;2.90;99.90;;;;;;4949425;28;20818;-87
2020/12/25 01:55:31;;;;;;;4.40;3.40;;;2.90;99.90;;;;;;4930465;28;20443;-86
2020/12/25 01:57:59;;;;;;;5.80;4.20;;;2.90;99.90;;;;;;4948980;28;20462;-86
2020/12/25 02:00:26;;;;;;;4.43;3.60;;;3.00;99.90;;;;;;4934881;28;20470;-86
2020/12/25 02:02:51;;;;;;;5.33;3.67;;;3.00;99.90;;;;;;4931846;28;20482;-86
2020/12/25 02:05:18;;;;;;;3.97;3.20;;;3.10;99.90;;;;;;4927700;29;20551;-87
2020/12/25 02:07:46;;;;;;;5.53;3.40;;;3.10;99.90;;;;;;4948390;28;20190;-87
2020/12/25 02:10:13;;;;;;;5.90;3.60;;;3.10;99.90;;;;;;4914564;28;20565;-87
2020/12/25 02:12:39;;;;;;;6.30;4.10;;;3.10;99.90;;;;;;4926861;29;20439;-87
2020/12/25 02:15:06;;;;;;;4.73;4.23;;;3.20;99.90;;;;;;4931618;28;20450;-88
2020/12/25 02:17:41;;;;;;;5.53;4.00;;;3.20;99.90;;;;;;4948293;28;20447;-88
2020/12/25 02:20:07;;;;;;;5.67;3.27;;;3.20;99.90;;;;;;4925650;28;20459;-87
2020/12/25 02:22:33;;;;;;;7.30;4.70;;;3.20;99.90;;;;;;4929607;29;20510;-86
2020/12/25 02:24:59;;;;;;;6.37;3.87;;;3.20;99.90;;;;;;4916312;28;20738;-88
2020/12/25 02:27:24;;;;;;;6.43;4.40;;;3.20;99.90;;;;;;4930807;29;20242;-88
2020/12/25 02:29:53;;;;;;;4.70;4.07;;;3.20;99.90;;;;;;4929532;28;20211;-89
2020/12/25 02:32:21;;;;;;;5.60;4.20;;;3.20;99.90;;;;;;4931996;28;20230;-88
2020/12/25 02:34:46;;;;;;;6.37;3.90;;;3.30;99.90;;;;;;4927878;29;20517;-87
2020/12/25 02:37:12;;;;;;;6.03;4.40;;;3.30;99.90;;;;;;4932420;29;20562;-88
2020/12/25 02:39:38;;;;;;;3.17;2.87;;;3.40;99.90;;;;;;4928001;29;20222;-88
2020/12/25 02:42:03;;;;;;;6.47;4.17;;;3.40;99.90;;;;;;4933285;28;20238;-88
2020/12/25 02:44:29;;;;;;;6.83;4.77;;;3.40;99.90;;;;;;4914581;29;20258;-88
2020/12/25 02:46:55;;;;;;;5.07;3.97;;;3.40;99.90;;;;;;4929242;28;20295;-89
2020/12/25 02:49:23;;;;;;;4.77;3.97;;;3.40;99.90;;;;;;4918889;29;20730;-87
2020/12/25 02:51:49;;;;;;;6.07;4.17;;;3.40;99.90;;;;;;4924427;28;20454;-87
2020/12/25 02:54:17;;;;;;;4.30;3.80;;;3.40;99.90;;;;;;4935002;29;20372;-87
2020/12/25 02:56:43;;;;;;;7.00;4.30;;;3.50;99.90;;;;;;4921488;29;20289;-87
2020/12/25 02:59:10;;;;;;;8.90;4.40;;;3.50;99.90;;;;;;4949711;28;20643;-88
2020/12/25 03:01:35;;;;;;;5.77;4.43;;;3.50;99.90;;;;;;4927023;28;20216;-87
2020/12/25 03:04:01;;;;;;;9.77;5.07;;;3.50;99.90;;;;;;4928396;28;20470;-88
2020/12/25 03:06:26;;;;;;;7.73;4.17;;;3.50;99.90;;;;;;4935157;29;20203;-88
2020/12/25 03:08:52;;;;;;;7.60;4.80;;;3.50;99.90;;;;;;4930198;28;20663;-87
2020/12/25 03:11:18;;;;;;;7.70;4.67;;;3.40;99.90;;;;;;4949669;28;20223;-89
2020/12/25 03:13:46;;;;;;;7.33;5.07;;;3.40;99.90;;;;;;4933972;29;20187;-87
2020/12/25 03:16:14;;;;;;;7.63;5.37;;;3.50;99.90;;;;;;4937308;28;20218;-87
2020/12/25 03:18:40;;;;;;;6.23;4.47;;;3.50;99.90;;;;;;4915997;29;20482;-87
2020/12/25 03:21:05;;;;;;;7.33;5.27;;;3.50;99.90;;;;;;4932523;28;20490;-88
2020/12/25 03:23:31;;;;;;;9.70;5.37;;;3.50;99.90;;;;;;4933192;28;20582;-86
2020/12/25 03:25:57;;;;;;;7.57;5.53;;;3.50;99.90;;;;;;4932845;28;20223;-87
2020/12/25 03:28:22;;;;;;;8.00;6.00;;;3.40;99.90;;;;;;4933269;29;20695;-88
2020/12/25 03:30:48;;;;;;;6.93;4.97;;;3.50;99.90;;;;;;4947757;28;20235;-86
2020/12/25 03:33:13;;;;;;;9.20;5.80;;;3.50;99.90;;;;;;4934348;28;20187;-87
2020/12/25 03:35:39;;;;;;;10.60;6.00;;;3.60;99.90;;;;;;4935508;29;20195;-88
2020/12/25 03:38:05;;;;;;;9.10;5.73;;;3.60;99.90;;;;;;4930023;28;20211;-88
2020/12/25 03:40:34;;;;;;;7.83;5.47;;;3.60;99.90;;;;;;4916366;28;20211;-89
2020/12/25 03:42:59;;;;;;;11.33;5.80;;;3.70;99.90;;;;;;4949007;28;20203;-88
2020/12/25 03:45:26;;;;;;;13.33;6.43;;;3.70;99.90;;;;;;4930789;28;20984;-89
2020/12/25 03:47:51;;;;;;;9.40;6.10;;;3.60;99.90;;;;;;4924256;28;20435;-89
2020/12/25 03:50:17;;;;;;;11.00;6.60;;;3.70;99.90;;;;;;4951263;28;20455;-88
2020/12/25 03:52:45;;;;;;;10.97;6.67;;;3.60;99.90;;;;;;4930789;28;20312;-89
2020/12/25 03:55:11;;;;;;;8.10;5.57;;;3.60;99.90;;;;;;4920668;28;23075;-88
2020/12/25 03:57:37;;;;;;;11.10;6.20;;;3.60;99.90;;;;;;4946958;28;20491;-89
2020/12/25 04:00:03;;;;;;;10.37;6.30;;;3.70;99.90;;;;;;4929284;28;20585;-89
2020/12/25 04:02:29;;;;;;;9.47;6.67;;;3.70;99.90;;;;;;4929127;28;20214;-89
2020/12/25 04:04:55;;;;;;;10.30;6.53;;;3.80;99.90;;;;;;4925282;28;20457;-89
2020/12/25 04:07:20;;;;;;;8.63;6.20;;;3.80;99.90;;;;;;4945257;28;20187;-89
2020/12/25 04:09:49;;;;;;;12.37;7.27;;;3.80;99.90;;;;;;4947289;28;20226;-89
2020/12/25 04:12:14;;;;;;;9.60;5.83;;;3.80;99.90;;;;;;4933093;29;20673;-89
2020/12/25 04:14:43;;;;;;;13.60;7.27;;;3.90;99.90;;;;;;4931805;29;20434;-89
2020/12/25 04:17:08;;;;;;;11.27;6.30;;;3.90;99.90;;;;;;4928264;28;20563;-88
2020/12/25 04:19:34;;;;;;;9.70;6.43;;;3.90;99.90;;;;;;4911731;29;20509;-88
2020/12/25 04:22:00;;;;;;;10.87;7.07;;;3.90;99.90;;;;;;4932871;28;20203;-88
2020/12/25 04:24:31;;;;;;;8.80;6.20;;;3.80;99.90;;;;;;4934547;28;20198;-87
2020/12/25 04:26:57;;;;;;;12.40;6.20;;;3.80;99.90;;;;;;4930205;28;20779;-89
2020/12/25 04:29:23;;;;;;;10.97;6.50;;;3.90;99.90;;;;;;4944404;28;20462;-85
2020/12/25 04:31:48;;;;;;;7.40;4.97;;;3.80;99.90;;;;;;4932571;28;20187;-87
2020/12/25 04:34:16;;;;;;;11.70;7.00;;;3.90;99.90;;;;;;4950702;28;20183;-88
2020/12/25 04:36:42;;;;;;;10.37;6.90;;;3.90;99.90;;;;;;4933722;29;20199;-86
2020/12/25 04:39:09;;;;;;;10.73;7.17;;;3.90;99.90;;;;;;4931263;28;20933;-86
2020/12/25 04:41:38;;;;;;;9.90;6.67;;;3.80;99.90;;;;;;4950098;28;20439;-88
2020/12/25 04:44:06;;;;;;;9.13;6.53;;;3.80;99.90;;;;;;4944497;28;21015;-89
2020/12/25 04:46:35;;;;;;;9.40;6.93;;;3.80;99.90;;;;;;4928315;28;20442;-89
2020/12/25 04:49:01;;;;;;;10.83;7.30;;;3.80;99.90;;;;;;4929669;28;20434;-86
2020/12/25 04:51:30;;;;;;;12.40;7.20;;;3.80;99.90;;;;;;4942473;28;20434;-88
2020/12/25 04:54:03;;;;;;;13.73;9.17;;;3.80;99.90;;;;;;4929118;28;20210;-88
2020/12/25 04:56:37;;;;;;;12.20;7.33;;;3.90;99.90;;;;;;4933457;29;20896;-86
2020/12/25 04:59:03;;;;;;;10.33;7.17;;;3.90;99.90;;;;;;4946779;28;20429;-88
2020/12/25 05:01:29;;;;;;;14.00;7.50;;;3.90;99.90;;;;;;4929077;28;20443;-88
2020/12/25 05:03:57;;;;;;;17.77;8.10;;;3.90;99.90;;;;;;4928831;28;20434;-87
2020/12/25 05:06:24;;;;;;;13.70;8.37;;;3.90;99.90;;;;;;4915752;29;20215;-88
2020/12/25 05:08:55;;;;;;;13.80;8.90;;;3.90;99.90;;;;;;4929827;28;20447;-88
2020/12/25 05:11:23;;;;;;;14.57;7.80;;;3.90;99.90;;;;;;4930061;28;20468;-87
2020/12/25 05:13:54;;;;;;;10.17;7.30;;;3.90;99.90;;;;;;4930449;28;20447;-86
2020/12/25 05:16:22;;;;;;;14.17;8.17;;;3.90;99.90;;;;;;4926921;29;20522;-87
2020/12/25 05:18:51;;;;;;;12.63;7.20;;;4.00;99.90;;;;;;4926076;28;20466;-88
2020/12/25 05:21:21;;;;;;;12.20;7.60;;;4.00;99.90;;;;;;4946993;28;20473;-89
2020/12/25 05:23:54;;;;;;;11.20;7.57;;;4.10;99.90;;;;;;4928207;29;20539;-87
2020/12/25 05:26:20;;;;;;;17.30;8.40;;;4.10;99.90;;;;;;4948395;28;20436;-88
2020/12/25 05:28:48;;;;;;;13.57;7.83;;;4.10;99.90;;;;;;4931139;29;20451;-87
2020/12/25 05:31:21;;;;;;;18.27;8.60;;;4.10;99.90;;;;;;4918908;29;20230;-87
2020/12/25 05:33:50;;;;;;;14.10;7.90;;;4.10;99.90;;;;;;4930177;29;20427;-88
2020/12/25 05:36:19;;;;;;;13.40;7.23;;;4.10;99.90;;;;;;4929358;29;20443;-88
2020/12/25 05:38:49;;;;;;;10.63;6.73;;;4.10;99.90;;;;;;4944545;28;20457;-88
2020/12/25 05:41:21;;;;;;;13.57;7.13;;;4.10;99.90;;;;;;4924962;29;21238;-88
2020/12/25 05:43:48;;;;;;;11.53;7.63;;;4.10;99.90;;;;;;4945765;28;21073;-87
2020/12/25 05:46:14;;;;;;;15.00;9.37;;;4.10;99.90;;;;;;4943563;28;20442;-88
2020/12/25 05:48:48;;;;;;;12.77;7.30;;;4.10;99.90;;;;;;4943787;28;20489;-88
2020/12/25 05:51:17;;;;;;;12.83;7.03;;;4.20;99.90;;;;;;4944532;28;20211;-88
2020/12/25 05:53:48;;;;;;;14.40;7.13;;;4.10;99.90;;;;;;4926030;29;20473;-86
2020/12/25 05:56:17;;;;;;;19.53;8.30;;;4.20;99.90;;;;;;4930037;28;20462;-88
2020/12/25 05:58:51;;;;;;;11.07;6.80;;;4.10;99.90;;;;;;4943799;28;20456;-87
2020/12/25 06:01:17;;;;;;;12.23;7.33;;;4.10;99.90;;;;;;4928406;29;20538;-87
2020/12/25 06:03:46;;;;;;;18.00;7.60;;;4.10;99.90;;;;;;4945445;28;20470;-85
2020/12/25 06:06:13;;;;;;;16.07;8.50;;;4.10;99.90;;;;;;4943892;28;20426;-87
2020/12/25 06:08:59;;;;;;;11.03;7.03;;;4.10;99.90;;;;;;4928196;29;20427;-87
2020/12/25 06:11:30;;;;;;;10.57;7.40;;;4.10;99.90;;;;;;4940536;28;20818;-87
2020/12/25 06:14:01;;;;;;;12.77;7.13;;;4.10;99.90;;;;;;4944142;28;20500;-87
2020/12/25 06:16:28;;;;;;;11.20;6.87;;;4.10;99.90;;;;;;4922986;29;20529;-88
2020/12/25 06:19:25;;;;;;;13.80;7.80;;;4.10;99.90;;;;;;4945563;28;20540;-89
2020/12/25 06:22:00;;;;;;;12.27;7.93;;;4.10;99.90;;;;;;4944726;28;20494;-87
2020/12/25 06:24:40;;;;;;;17.00;8.47;;;4.10;99.90;;;;;;4928352;28;20454;-88
2020/12/25 06:27:06;;;;;;;16.13;8.33;;;4.10;99.90;;;;;;4916759;28;20446;-86
2020/12/25 06:29:32;;;;;;;15.13;8.00;;;4.20;99.90;;;;;;4935834;29;20455;-87
2020/12/25 06:32:02;;;;;;;12.83;6.73;;;4.20;99.90;;;;;;4924127;28;20178;-88
2020/12/25 06:34:50;;;;;;;13.00;8.10;;;4.20;99.90;;;;;;4938128;28;20430;-88
2020/12/25 06:37:17;;;;;;;19.47;8.90;;;4.10;99.90;;;;;;4954197;28;20548;-90
2020/12/25 06:39:55;;;;;;;13.47;8.13;;;4.10;99.90;;;;;;4936553;28;20464;-90
2020/12/25 06:42:38;;;;;;;13.60;7.03;;;4.10;99.90;;;;;;4971425;28;20486;-89
2020/12/25 06:45:06;;;;;;;17.10;7.67;;;4.10;99.90;;;;;;4938726;28;20522;-87
2020/12/25 06:47:37;;;;;;;10.00;6.20;;;4.10;99.90;;;;;;4934609;29;20447;-86
2020/12/25 06:50:14;;;;;;;13.00;7.70;;;4.10;99.90;;;;;;4951693;28;20463;-87
2020/12/25 06:52:53;;;;;;;13.17;7.87;;;4.10;99.90;;;;;;4934663;29;20465;-86
2020/12/25 06:55:22;;;;;;;15.00;7.67;;;4.20;99.90;;;;;;4937880;29;20434;-87
2020/12/25 06:58:05;;;;;;;19.90;8.23;;;4.20;99.90;;;;;;4930432;28;20474;-88
2020/12/25 07:00:30;;;;;;;10.50;6.57;;;4.20;99.90;;;;;;4936909;28;20443;-88
2020/12/25 07:03:13;;;;;;;17.60;8.07;;;4.20;99.90;;;;;;4950767;28;20564;-85
2020/12/25 07:05:47;;;;;;;17.90;7.50;;;4.20;99.90;;;;;;4934708;29;20199;-88
2020/12/25 07:08:54;;;;;;;15.50;7.10;;;4.20;99.90;;;;;;4930571;29;20432;-88
2020/12/25 07:11:23;;;;;;;13.40;8.00;;;4.20;99.90;;;;;;4931368;28;20535;-88
2020/12/25 07:13:49;;;;;;;14.97;6.73;;;4.20;99.90;;;;;;4932669;28;20437;-88
2020/12/25 07:16:17;;;;;;;13.80;7.90;;;4.30;99.90;;;;;;4933180;29;20443;-88
2020/12/25 07:18:45;;;;;;;13.93;7.97;;;4.30;99.90;;;;;;4933087;28;20986;-89
2020/12/25 07:21:11;;;;;;;13.70;7.57;;;4.40;99.90;;;;;;4931322;28;20470;-87
2020/12/25 07:23:44;;;;;;;12.17;8.07;;;4.40;99.90;;;;;;4935463;29;20479;-88
2020/12/25 07:26:11;;;;;;;14.30;6.97;;;4.40;99.90;;;;;;4935049;28;20485;-88
2020/12/25 07:28:44;;;;;;;18.33;7.03;;;4.50;99.90;;;;;;4933645;29;20442;-89
2020/12/25 07:31:10;;;;;;;11.90;6.70;;;4.60;99.90;;;;;;4954532;28;20469;-87
2020/12/25 07:33:36;;;;;;;12.40;6.53;;;4.60;99.90;;;;;;4934555;29;20542;-87
2020/12/25 07:36:11;;;;;;;8.10;6.20;;;4.60;99.90;;;;;;4933685;28;20637;-88
2020/12/25 07:38:37;;;;;;;11.73;5.97;;;4.60;99.90;;;;;;4938632;29;20438;-87
2020/12/25 07:41:05;;;;;;;10.00;6.40;;;4.60;99.90;;;;;;4931850;28;20486;-87
2020/12/25 07:43:31;;;;;;;12.10;6.43;;;4.60;99.90;;;;;;4928881;29;20525;-86
2020/12/25 07:45:59;;;;;;;9.83;6.30;;;4.60;99.90;;;;;;4928845;28;21056;-87
2020/12/25 07:48:28;;;;;;;8.30;5.53;;;4.60;99.90;;;;;;4927119;28;20195;-87
2020/12/25 07:50:55;;;;;;;13.90;5.70;;;4.60;99.90;;;;;;4930548;29;20451;-89
2020/12/25 07:53:23;;;;;;;6.80;5.17;;;4.60;99.90;;;;;;4945745;28;20431;-89
2020/12/25 07:55:50;;;;;;;9.80;6.40;;;4.60;99.90;;;;;;4930764;28;20435;-88
2020/12/25 07:58:24;;;;;;;8.77;5.60;;;4.50;99.90;;;;;;4945705;28;20435;-88
2020/12/25 08:01:08;;;;;;;11.70;6.10;;;4.60;99.90;;;;;;4932132;28;20511;-85
2020/12/25 08:03:53;;;;;;;11.00;5.80;;;4.60;99.90;;;;;;4930498;28;21082;-84
2020/12/25 08:06:22;;;;;;;7.10;5.57;;;4.60;99.90;;;;;;4934853;28;20508;-86
2020/12/25 08:08:58;;;;;;;7.83;5.77;;;4.60;99.90;;;;;;4932298;29;20430;-86
2020/12/25 08:11:26;;;;;;;9.77;5.87;;;4.60;99.90;;;;;;4935817;29;20501;-88
2020/12/25 08:13:59;;;;;;;7.80;5.87;;;4.70;99.90;;;;;;4934071;28;20427;-88
2020/12/25 08:16:28;;;;;;;10.70;5.87;;;4.70;99.90;;;;;;4933030;28;22124;-88
2020/12/25 08:18:56;;;;;;;8.37;5.87;;;4.80;99.90;;;;;;4933240;28;20478;-89
2020/12/25 08:21:33;;;;;;;7.10;5.40;;;4.80;99.90;;;;;;4947886;28;20450;-89
2020/12/25 08:24:02;;;;;;;11.33;6.17;;;4.80;99.90;;;;;;4924490;28;20490;-88
2020/12/25 08:26:32;;;;;;;7.40;5.00;;;4.80;99.90;;;;;;4932435;29;20442;-88
2020/12/25 08:33:03;;;;;;;11.43;5.57;;;4.70;99.90;;;;;;4855707;29;20482;-90
2020/12/25 08:35:41;;;;;;;7.70;5.20;;;4.80;99.90;;;;;;4857697;29;20518;-88
2020/12/25 08:38:07;;;;;;;7.83;6.10;;;4.70;99.90;;;;;;4861364;29;20435;-89
2020/12/25 08:40:39;;;;;;;8.43;6.00;;;4.80;99.90;;;;;;4904901;29;20998;-88
2020/12/25 08:43:09;;;;;;;9.57;6.00;;;4.80;99.90;;;;;;4933416;28;20226;-88
2020/12/25 08:45:35;;;;;;;11.27;5.50;;;4.90;99.90;;;;;;4934353;28;20461;-87
2020/12/25 08:48:09;;;;;;;9.20;5.90;;;4.90;99.90;;;;;;4946698;28;20458;-87
2020/12/25 08:50:41;;;;;;;8.80;4.93;;;4.90;99.90;;;;;;4929789;29;21089;-88
2020/12/25 08:53:11;;;;;;;7.10;5.70;;;4.90;99.90;;;;;;4934281;28;20443;-88
2020/12/25 08:55:36;;;;;;;12.60;4.37;;;4.90;99.90;;;;;;4932589;29;20455;-86
2020/12/25 08:58:04;;;;;;;8.20;5.90;;;5.00;99.90;;;;;;4931388;28;20437;-87
2020/12/25 09:00:29;;;;;;;7.50;4.47;;;5.00;99.90;;;;;;4918960;28;20207;-87
2020/12/25 09:03:01;;;;;;;9.17;5.00;;;5.10;99.90;;;;;;4938142;28;20649;-88
2020/12/25 09:08:39;;;;;;;9.47;5.50;;;5.00;99.90;;;;;;4933681;28;20443;-87
2020/12/25 09:11:09;;;;;;;6.50;5.03;;;5.10;99.90;;;;;;4929791;28;20486;-87
2020/12/25 09:13:34;;;;;;;11.80;6.10;;;5.10;99.90;;;;;;4930702;29;21051;-86
2020/12/25 09:16:00;;;;;;;8.83;5.00;;;5.20;99.90;;;;;;4945222;28;20439;-84
2020/12/25 09:18:26;;;;;;;9.97;5.50;;;5.20;99.90;;;;;;4947924;28;20180;-87
2020/12/25 09:20:54;;;;;;;10.03;6.63;;;5.20;99.90;;;;;;4932460;28;20475;-89
2020/12/25 09:23:24;;;;;;;8.60;5.53;;;5.20;99.90;;;;;;4934764;28;20211;-87
2020/12/25 09:25:52;;;;;;;7.07;4.70;;;5.20;99.90;;;;;;4958636;28;20865;-86
2020/12/25 09:28:44;;;;;;;5.57;4.27;;;5.10;99.90;;;;;;4932119;29;20484;-88
2020/12/25 09:31:12;;;;;;;5.07;4.07;;;5.10;99.90;;;;;;4927222;29;20456;-88
2020/12/25 09:33:38;;;;;;;6.17;4.87;;;5.10;99.90;;;;;;4929080;29;20443;-88
2020/12/25 09:36:09;;;;;;;7.17;4.77;;;5.10;99.90;;;;;;4942702;28;21017;-87
2020/12/25 09:38:37;;;;;;;8.10;4.40;;;5.10;99.90;;;;;;4918448;29;20465;-89
2020/12/25 09:41:03;;;;;;;6.80;4.97;;;5.10;99.90;;;;;;4934461;28;20511;-87
2020/12/25 09:43:35;;;;;;;6.40;4.80;;;5.20;99.90;;;;;;4931019;29;20471;-87
2020/12/25 09:46:00;;;;;;;5.47;3.77;;;5.40;99.90;;;;;;4944348;28;20315;-88
2020/12/25 09:48:26;;;;;;;5.40;4.20;;;5.50;99.90;;;;;;4928644;29;20483;-88
2020/12/25 09:50:55;;;;;;;10.70;5.47;;;5.60;99.90;;;;;;4947214;28;20212;-87
2020/12/25 09:53:20;;;;;;;7.40;4.63;;;5.60;99.90;;;;;;4930845;29;20209;-88
2020/12/25 09:55:48;;;;;;;6.13;5.00;;;5.70;99.90;;;;;;4945890;28;20517;-88
2020/12/25 09:58:14;;;;;;;4.83;4.30;;;5.90;99.90;;;;;;4928942;28;20200;-87
2020/12/25 10:00:42;;;;;;;5.00;3.43;;;5.90;99.90;;;;;;4947710;28;20458;-88
2020/12/25 10:03:08;;;;;;;4.70;4.20;;;5.80;99.90;;;;;;4927798;28;20234;-88
2020/12/25 10:05:34;;;;;;;5.10;3.97;;;5.80;99.90;;;;;;4930653;28;20452;-88
2020/12/25 10:08:02;;;;;;;5.40;4.00;;;5.70;99.90;;;;;;4929356;28;20242;-88
2020/12/25 10:10:30;;;;;;;4.20;3.80;;;5.70;99.90;;;;;;4935247;29;20206;-88
2020/12/25 10:12:58;;;;;;;6.43;4.03;;;5.70;99.90;;;;;;4927746;28;20439;-88
2020/12/25 10:15:23;;;;;;;3.87;3.40;;;5.70;99.90;;;;;;4934113;29;20442;-88
2020/12/25 10:17:53;;;;;;;5.43;3.73;;;5.70;99.90;;;;;;4929028;28;20446;-89
2020/12/25 10:20:18;;;;;;;4.10;3.13;;;5.80;99.90;;;;;;4929394;28;20286;-88
2020/12/25 10:22:44;;;;;;;7.67;3.87;;;5.80;99.90;;;;;;4946687;28;20472;-88
2020/12/25 10:25:10;;;;;;;5.60;4.27;;;5.80;99.90;;;;;;4951504;28;20275;-90
2020/12/25 10:27:46;;;;;;;6.27;4.03;;;5.90;99.90;;;;;;4940151;28;20199;-90
2020/12/25 10:30:12;;;;;;;6.83;4.30;;;5.80;99.90;;;;;;4974596;28;20270;-88
2020/12/25 10:32:41;;;;;;;4.80;4.27;;;5.80;99.90;;;;;;4973538;28;20435;-89
2020/12/25 10:35:07;;;;;;;6.50;4.03;;;5.80;99.90;;;;;;4940203;28;20179;-90
2020/12/25 10:37:40;;;;;;;5.30;3.77;;;5.80;99.90;;;;;;4972396;28;20421;-89
2020/12/25 10:40:32;;;;;;;4.60;3.83;;;5.90;99.90;;;;;;4949264;28;20191;-89
2020/12/25 10:42:58;;;;;;;6.80;4.23;;;5.90;99.90;;;;;;4950568;28;20546;-88
2020/12/25 10:45:32;;;;;;;6.43;4.80;;;5.80;99.90;;;;;;4952240;28;20471;-86
2020/12/25 10:48:07;;;;;;;4.23;3.83;;;5.80;99.90;;;;;;4915253;28;20246;-89
2020/12/25 10:51:08;;;;;;;4.13;3.50;;;5.70;99.90;;;;;;4945785;28;20459;-90
2020/12/25 10:53:39;;;;;;;5.60;3.50;;;5.80;99.90;;;;;;4931699;28;20473;-89
2020/12/25 10:56:48;;;;;;;3.83;3.43;;;5.80;99.90;;;;;;4940194;28;20490;-86
2020/12/25 10:59:36;;;;;;;5.17;3.77;;;5.80;99.90;;;;;;4942523;29;20489;-88
2020/12/25 11:02:01;;;;;;;6.73;3.90;;;5.80;99.90;;;;;;4961598;28;20479;-91
2020/12/25 11:04:29;;;;;;;5.60;3.97;;;5.90;99.90;;;;;;4938644;28;20534;-89
2020/12/25 11:07:06;;;;;;;3.33;3.03;;;5.90;99.90;;;;;;4971732;28;20208;-90
2020/12/25 11:09:45;;;;;;;4.83;3.73;;;6.00;99.90;;;;;;4932828;28;20454;-92
2020/12/25 11:12:11;;;;;;;3.17;2.87;;;6.10;99.90;;;;;;4956343;28;20510;-86
2020/12/25 11:14:41;;;;;;;5.83;3.80;;;6.00;99.90;;;;;;4941843;28;20443;-89
2020/12/25 11:17:10;;;;;;;5.20;4.70;;;6.00;99.90;;;;;;4969855;28;20232;-89
2020/12/25 11:19:38;;;;;;;4.40;3.80;;;5.90;99.90;;;;;;4941126;28;20911;-89
2020/12/25 11:22:04;;;;;;;6.73;3.70;;;5.90;99.90;;;;;;4937250;28;20470;-88
2020/12/25 11:24:32;;;;;;;5.90;4.60;;;5.90;99.90;;;;;;4948967;28;20462;-87
2020/12/25 11:27:01;;;;;;;7.10;4.90;;;6.00;99.90;;;;;;4930923;28;20192;-86
2020/12/25 11:29:26;;;;;;;5.30;4.20;;;6.00;99.90;;;;;;4948719;28;20480;-86
2020/12/25 11:31:59;;;;;;;5.40;3.97;;;5.90;99.90;;;;;;4918932;28;21137;-86
2020/12/25 11:34:25;;;;;;;5.40;3.77;;;6.00;99.90;;;;;;4931395;29;20202;-87
2020/12/25 11:36:57;;;;;;;5.70;4.20;;;6.00;99.90;;;;;;4934366;28;20450;-86
2020/12/25 11:39:32;;;;;;;5.03;4.27;;;6.20;99.90;;;;;;4948082;28;20246;-85
2020/12/25 11:41:58;;;;;;;4.07;3.43;;;6.20;99.90;;;;;;4949966;28;20810;-86
2020/12/25 11:44:24;;;;;;;6.07;3.97;;;6.30;99.90;;;;;;4920001;28;20514;-84
2020/12/25 11:46:59;;;;;;;4.40;4.00;;;6.20;99.90;;;;;;4935407;28;20226;-85
2020/12/25 11:49:25;;;;;;;6.80;4.33;;;6.20;99.90;;;;;;4949820;28;20218;-85
2020/12/25 11:51:57;;;;;;;5.97;4.07;;;6.30;99.90;;;;;;4932917;28;20431;-85
2020/12/25 11:54:27;;;;;;;5.13;3.50;;;6.20;99.90;;;;;;4932539;28;20423;-84
2020/12/25 11:56:55;;;;;;;5.67;3.53;;;6.20;99.90;;;;;;4947374;28;20510;-86
2020/12/25 11:59:21;;;;;;;5.83;3.30;;;6.20;99.90;;;;;;4933730;29;20523;-86
2020/12/25 12:01:50;;;;;;;3.83;3.40;;;6.20;99.90;;;;;;4927157;28;20521;-84
2020/12/25 12:04:19;;;;;;;4.37;3.27;;;6.00;99.90;;;;;;4950896;28;20558;-85
2020/12/25 12:06:47;;;;;;;3.13;2.93;;;5.70;99.90;;;;;;4916859;29;20443;-85
2020/12/25 12:09:22;;;;;;;2.80;2.50;;;5.50;99.90;;;;;;4916079;28;20446;-83
2020/12/25 12:11:47;;;;;;;2.67;2.47;;;5.60;99.90;;;;;;4933486;29;20530;-88
2020/12/25 12:14:21;;;;;;;2.90;2.57;;;5.80;99.90;;;;;;4930110;29;20499;-85
2020/12/25 12:16:53;;;;;;;2.60;2.30;;;6.00;99.90;;;;;;4930133;28;20197;-82
2020/12/25 12:19:18;;;;;;;3.83;2.30;;;6.10;99.90;;;;;;4947003;28;20424;-85
2020/12/25 12:21:49;;;;;;;2.20;2.00;;;6.10;99.90;;;;;;4945849;28;20442;-83
2020/12/25 12:24:19;;;;;;;2.63;2.40;;;6.00;99.90;;;;;;4947863;28;20205;-84
2020/12/25 12:26:59;;;;;;;2.47;2.23;;;5.80;99.90;;;;;;4931881;29;20431;-82
2020/12/25 12:29:27;;;;;;;4.03;2.60;;;5.60;99.90;;;;;;4933022;29;20518;-85
2020/12/25 12:32:02;;;;;;;3.57;2.90;;;5.40;99.90;;;;;;4928784;28;20447;-87
2020/12/25 12:34:27;;;;;;;2.83;2.53;;;5.30;99.90;;;;;;4930162;28;20456;-85
2020/12/25 12:36:53;;;;;;;3.93;3.07;;;5.20;99.90;;;;;;4930848;28;20439;-85
2020/12/25 12:39:21;;;;;;;2.90;2.43;;;5.20;99.90;;;;;;4925775;29;20187;-84
2020/12/25 12:41:50;;;;;;;3.20;2.80;;;5.20;99.90;;;;;;4947038;28;20316;-85
2020/12/25 12:44:22;;;;;;;2.37;2.17;;;5.20;99.90;;;;;;4928046;29;20438;-86
2020/12/25 12:47:00;;;;;;;2.90;2.33;;;5.20;99.90;;;;;;4928714;28;20486;-85
2020/12/25 12:49:36;;;;;;;4.00;2.57;;;5.30;99.90;;;;;;4948256;28;20466;-89
2020/12/25 12:52:04;;;;;;;3.37;2.57;;;5.30;99.90;;;;;;4914847;28;20430;-85
2020/12/25 12:54:30;;;;;;;3.10;2.10;;;5.30;99.90;;;;;;4922549;29;20440;-87
2020/12/25 12:57:01;;;;;;;3.53;2.40;;;5.40;99.90;;;;;;4911278;28;20482;-87
2020/12/25 12:59:27;;;;;;;2.80;2.10;;;5.30;99.90;;;;;;4933072;28;20220;-86
2020/12/25 13:01:56;;;;;;;2.20;2.00;;;5.30;99.90;;;;;;4930318;28;20504;-85
2020/12/25 13:04:23;;;;;;;4.27;2.80;;;5.30;99.90;;;;;;4928627;28;20289;-87
2020/12/25 13:06:48;;;;;;;3.37;2.77;;;5.40;99.90;;;;;;4930756;28;20965;-84
2020/12/25 13:09:21;;;;;;;5.30;2.97;;;5.50;99.90;;;;;;4931731;29;20440;-87
2020/12/25 13:11:55;;;;;;;3.13;2.10;;;5.50;99.90;;;;;;4928773;28;20282;-86